createdAt,value
2023-04-18T00:01:25.226Z,53.64
2023-04-18T00:06:27.520Z,52.64
2023-04-18T00:11:30.427Z,52.94
2023-04-18T00:16:33.352Z,53.24
2023-04-18T00:21:37.409Z,53.59
2023-04-18T00:26:39.433Z,53.57
2023-04-18T00:31:41.491Z,53.59
2023-04-18T00:36:43.459Z,53.55
2023-04-18T00:41:45.713Z,53.84
2023-04-18T00:46:48.477Z,53.51
2023-04-18T00:51:51.800Z,53.64
2023-04-18T00:56:54.138Z,53.57
2023-04-18T01:01:56.250Z,53.42
2023-04-18T01:06:58.777Z,53.48
2023-04-18T01:12:02.212Z,53.77
2023-04-18T01:17:04.184Z,53.97
2023-04-18T01:22:07.283Z,54.00
2023-04-18T01:27:13.624Z,54.29
2023-04-18T01:32:17.861Z,54.60
2023-04-18T01:37:22.122Z,54.53
2023-04-18T01:42:24.253Z,54.64
2023-04-18T01:47:26.266Z,54.88
2023-04-18T01:52:28.514Z,55.19
2023-04-18T01:57:31.288Z,55.23
2023-04-18T02:02:33.513Z,54.95
2023-04-18T02:07:35.832Z,55.38
2023-04-18T02:12:37.937Z,55.32
2023-04-18T02:17:41.928Z,55.52
2023-04-18T02:22:44.480Z,55.31
2023-04-18T02:27:46.530Z,55.49
2023-04-18T02:32:52.303Z,55.33
2023-04-18T02:37:54.399Z,55.27
2023-04-18T02:42:56.421Z,55.44
2023-04-18T02:47:58.651Z,55.58
2023-04-18T02:53:00.698Z,55.78
2023-04-18T02:58:13.288Z,55.67
2023-04-18T03:03:27.285Z,55.64
2023-04-18T03:08:36.010Z,55.88
2023-04-18T03:13:38.383Z,55.89
2023-04-18T03:18:40.952Z,55.73
2023-04-18T03:23:43.097Z,55.75
2023-04-18T03:28:46.125Z,55.83
2023-04-18T03:33:49.379Z,55.52
2023-04-18T03:38:51.632Z,55.55
2023-04-18T03:43:53.858Z,55.66
2023-04-18T03:48:56.045Z,55.68
2023-04-18T03:53:58.339Z,55.60
2023-04-18T03:59:00.514Z,55.58
2023-04-18T04:04:03.366Z,55.60
2023-04-18T04:09:05.682Z,55.56
2023-04-18T04:14:08.378Z,55.48
2023-04-18T04:19:15.440Z,55.20
2023-04-18T04:24:38.861Z,55.45
2023-04-18T04:29:43.901Z,55.45
2023-04-18T04:34:47.715Z,55.27
2023-04-18T04:39:49.787Z,55.28
2023-04-18T04:45:10.855Z,55.35
2023-04-18T04:50:15.792Z,55.21
2023-04-18T04:55:19.170Z,55.36
2023-04-18T05:00:22.282Z,55.48
2023-04-18T05:05:25.622Z,55.81
2023-04-18T05:10:27.762Z,55.63
2023-04-18T05:15:30.335Z,55.68
2023-04-18T05:20:32.364Z,55.72
2023-04-18T05:25:34.547Z,55.71
2023-04-18T05:30:36.693Z,55.76
2023-04-18T05:35:38.960Z,55.73
2023-04-18T05:40:42.646Z,55.92
2023-04-18T05:45:44.701Z,56.01
2023-04-18T05:50:46.791Z,56.16
2023-04-18T05:55:49.123Z,56.22
2023-04-18T06:00:52.902Z,56.34
2023-04-18T06:05:55.054Z,55.96
2023-04-18T06:10:57.188Z,55.77
2023-04-18T06:16:00.777Z,55.59
2023-04-18T06:21:02.912Z,55.87
2023-04-18T06:26:05.119Z,55.94
2023-04-18T06:31:08.690Z,56.07
2023-04-18T06:36:10.782Z,56.19
2023-04-18T06:41:14.869Z,56.36
2023-04-18T06:46:17.015Z,55.98
2023-04-18T06:51:19.042Z,55.98
2023-04-18T06:56:21.385Z,56.03
2023-04-18T07:01:23.480Z,56.07
2023-04-18T07:06:26.447Z,55.92
2023-04-18T07:11:29.086Z,56.10
2023-04-18T07:16:31.250Z,56.48
2023-04-18T07:21:33.457Z,56.45
2023-04-18T07:26:35.792Z,56.67
2023-04-18T07:31:37.874Z,56.76
2023-04-18T07:36:41.045Z,56.84
2023-04-18T07:41:43.125Z,57.22
2023-04-18T07:46:45.342Z,57.18
2023-04-18T07:51:47.479Z,57.09
2023-04-18T07:56:49.530Z,56.87
2023-04-18T08:01:51.560Z,56.83
2023-04-18T08:06:53.872Z,56.58
2023-04-18T08:11:56.881Z,56.41
2023-04-18T08:16:58.871Z,56.53
2023-04-18T08:22:10.195Z,56.43
2023-04-18T08:27:12.446Z,56.44
2023-04-18T08:32:14.558Z,56.50
2023-04-18T08:37:16.772Z,56.07
2023-04-18T08:42:19.572Z,56.00
2023-04-18T08:47:21.770Z,55.89
2023-04-18T08:52:24.634Z,55.71
2023-04-18T08:57:31.218Z,55.93
2023-04-18T09:02:47.138Z,56.13
2023-04-18T09:07:51.203Z,55.79
2023-04-18T09:12:53.061Z,55.72
2023-04-18T09:18:00.314Z,55.77
2023-04-18T09:23:04.532Z,56.02
2023-04-18T09:28:27.197Z,56.06
2023-04-18T09:33:36.956Z,56.36
2023-04-18T09:38:42.232Z,56.01
2023-04-18T09:43:45.667Z,56.10
2023-04-18T09:48:47.761Z,55.95
2023-04-18T09:53:50.616Z,55.95
2023-04-18T09:59:01.822Z,56.13
2023-04-18T10:04:06.937Z,56.30
2023-04-18T10:09:10.301Z,56.47
2023-04-18T10:14:16.301Z,56.58
2023-04-18T10:19:29.757Z,56.55
2023-04-18T10:24:53.696Z,56.45
2023-04-18T10:29:56.322Z,56.28
2023-04-18T10:34:59.946Z,55.96
2023-04-18T10:40:06.793Z,56.10
2023-04-18T10:45:29.805Z,56.24
2023-04-18T10:50:31.822Z,55.93
2023-04-18T10:55:34.369Z,55.93
2023-04-18T11:00:36.580Z,56.01
2023-04-18T11:05:38.787Z,56.36
2023-04-18T11:10:41.319Z,56.45
2023-04-18T11:15:43.343Z,56.38
2023-04-18T11:20:50.085Z,56.50
2023-04-18T11:25:54.613Z,56.44
2023-04-18T11:30:59.473Z,56.06
2023-04-18T11:36:02.865Z,56.14
2023-04-18T11:41:04.934Z,56.04
2023-04-18T11:46:07.033Z,55.86
2023-04-18T11:51:33.235Z,55.77
2023-04-18T11:56:36.800Z,56.27
2023-04-18T12:01:39.014Z,56.16
2023-04-18T12:06:51.608Z,56.21
2023-04-18T12:12:04.334Z,56.22
2023-04-18T12:17:06.550Z,56.19
2023-04-18T12:22:09.807Z,56.12
2023-04-18T12:27:12.375Z,56.08
2023-04-18T12:32:14.408Z,55.97
2023-04-18T12:37:16.516Z,56.27
2023-04-18T12:42:18.757Z,56.18
2023-04-18T12:47:21.031Z,56.23
2023-04-18T12:52:23.234Z,56.04
2023-04-18T12:57:25.799Z,56.22
2023-04-18T13:02:29.528Z,56.30
2023-04-18T13:07:31.783Z,56.34
2023-04-18T13:12:33.777Z,56.16
2023-04-18T13:17:39.050Z,56.34
2023-04-18T13:22:42.544Z,56.14
2023-04-18T13:27:46.094Z,55.93
2023-04-18T13:32:48.268Z,55.89
2023-04-18T13:37:50.491Z,56.57
2023-04-18T13:42:52.426Z,56.54
2023-04-18T13:47:54.621Z,56.24
2023-04-18T13:52:56.803Z,56.27
2023-04-18T13:57:58.886Z,56.42
2023-04-18T14:03:01.525Z,56.13
2023-04-18T14:08:04.269Z,56.27
2023-04-18T14:13:06.473Z,56.18
2023-04-18T14:18:08.707Z,56.33
2023-04-18T14:23:11.175Z,56.23
2023-04-18T14:28:13.548Z,56.38
2023-04-18T14:33:15.562Z,55.94
2023-04-18T14:38:17.769Z,55.41
2023-04-18T14:43:19.863Z,55.91
2023-04-18T14:48:22.147Z,56.40
2023-04-18T14:53:25.000Z,56.26
2023-04-18T14:58:27.117Z,55.96
2023-04-18T15:03:29.626Z,56.26
2023-04-18T15:08:32.807Z,55.98
2023-04-18T15:13:35.357Z,56.08
2023-04-18T15:18:37.505Z,55.88
2023-04-18T15:23:39.655Z,55.92
2023-04-18T15:28:41.770Z,55.78
2023-04-18T15:33:43.894Z,55.69
2023-04-18T15:38:45.992Z,55.57
2023-04-18T15:43:48.299Z,55.42
2023-04-18T15:48:50.520Z,55.90
2023-04-18T15:53:52.649Z,55.39
2023-04-18T15:58:57.981Z,55.69
2023-04-18T16:04:00.298Z,55.40
2023-04-18T16:09:02.514Z,55.37
2023-04-18T16:14:04.592Z,55.28
2023-04-18T16:19:06.777Z,55.55
2023-04-18T16:24:08.916Z,55.43
2023-04-18T16:29:11.208Z,55.43
2023-04-18T16:34:14.748Z,55.45
2023-04-18T16:39:18.156Z,55.41
2023-04-18T16:44:20.273Z,55.49
2023-04-18T16:49:23.831Z,55.33
2023-04-18T16:54:26.043Z,55.29
2023-04-18T16:59:28.112Z,55.32
2023-04-18T17:04:30.388Z,55.10
2023-04-18T17:09:32.463Z,55.00
2023-04-18T17:14:35.078Z,55.12
2023-04-18T17:19:37.201Z,55.08
2023-04-18T17:24:39.313Z,55.00
2023-04-18T17:29:42.085Z,55.09
2023-04-18T17:34:44.294Z,55.01
2023-04-18T17:39:46.464Z,54.99
2023-04-18T17:44:48.649Z,54.93
2023-04-18T17:49:50.694Z,54.91
2023-04-18T17:54:52.687Z,55.03
2023-04-18T17:59:54.849Z,54.86
2023-04-18T18:04:57.738Z,54.90
2023-04-18T18:09:59.775Z,54.88
2023-04-18T18:15:02.123Z,54.78
2023-04-18T18:20:09.891Z,54.81
2023-04-18T18:25:12.148Z,55.02
2023-04-18T18:30:14.393Z,54.86
2023-04-18T18:35:16.493Z,54.69
2023-04-18T18:40:18.654Z,54.74
2023-04-18T18:45:21.853Z,54.78
2023-04-18T18:50:24.142Z,54.67
2023-04-18T18:55:26.185Z,54.58
2023-04-18T19:00:28.480Z,54.65
2023-04-18T19:05:30.552Z,54.67
2023-04-18T19:10:33.169Z,54.66
2023-04-18T19:15:35.433Z,54.77
2023-04-18T19:20:40.450Z,54.63
2023-04-18T19:25:42.809Z,54.65
2023-04-18T19:30:45.519Z,54.72
2023-04-18T19:35:47.651Z,54.70
2023-04-18T19:40:49.717Z,54.80
2023-04-18T19:45:53.210Z,54.71
2023-04-18T19:50:57.625Z,54.91
2023-04-18T19:55:59.856Z,54.58
2023-04-18T20:01:02.353Z,54.75
2023-04-18T20:06:05.857Z,54.97
2023-04-18T20:11:09.704Z,54.62
2023-04-18T20:16:12.436Z,54.51
2023-04-18T20:21:14.474Z,54.54
2023-04-18T20:26:16.663Z,54.50
2023-04-18T20:31:18.758Z,54.58
2023-04-18T20:36:20.923Z,54.50
2023-04-18T20:41:24.380Z,54.69
2023-04-18T20:46:26.632Z,54.49
2023-04-18T20:51:29.768Z,54.78
2023-04-18T20:56:32.336Z,54.53
2023-04-18T21:01:36.160Z,54.52
2023-04-18T21:06:39.234Z,54.55
2023-04-18T21:11:41.487Z,54.50
2023-04-18T21:16:43.901Z,54.42
2023-04-18T21:21:46.032Z,54.29
2023-04-18T21:26:48.100Z,54.33
2023-04-18T21:31:50.428Z,54.50
2023-04-18T21:36:52.531Z,54.54
2023-04-18T21:41:54.612Z,54.35
2023-04-18T21:46:57.332Z,54.44
2023-04-18T21:51:59.588Z,54.44
2023-04-18T21:57:02.743Z,54.60
2023-04-18T22:02:05.698Z,54.36
2023-04-18T22:07:07.805Z,54.85
2023-04-18T22:12:09.952Z,54.38
2023-04-18T22:17:12.039Z,54.59
2023-04-18T22:22:14.090Z,54.44
2023-04-18T22:27:16.271Z,54.39
2023-04-18T22:32:18.392Z,54.38
2023-04-18T22:37:20.437Z,54.49
2023-04-18T22:42:22.465Z,54.53
2023-04-18T22:47:24.599Z,54.63
2023-04-18T22:52:26.676Z,54.37
2023-04-18T22:57:28.903Z,54.41
2023-04-18T23:02:31.213Z,54.36
2023-04-18T23:07:33.452Z,54.40
2023-04-18T23:12:35.549Z,54.37
2023-04-18T23:17:37.700Z,54.24
2023-04-18T23:22:39.931Z,54.23
2023-04-18T23:27:42.089Z,54.47
2023-04-18T23:32:44.191Z,54.64
2023-04-18T23:37:46.426Z,54.11
2023-04-18T23:42:48.753Z,54.30
2023-04-18T23:47:51.219Z,54.56
2023-04-18T23:52:53.325Z,54.84
2023-04-18T23:57:55.422Z,54.60
